Time;durP1;ratioP1;P1;durP2;ratioP2;P2;SDS_P1;SDS_P2;PMS_P1;PMS_P2;Temp;Humidity;BMP_temperature;BMP_pressure;BME280_temperature;BME280_humidity;BME280_pressure;Samples;Min_cycle;Max_cycle;Signal;HPM_P1;HPM_P2
2022/11/08 00:01:34;;;;;;;454.30;409.85;;;;;;;5.25;100.00;98290.50;7381829;19;20466;-49
2022/11/08 00:04:08;;;;;;;446.00;401.75;;;;;;;5.45;100.00;98295.81;7382465;19;20019;-49
2022/11/08 00:15:01;;;;;;;434.33;391.05;;;;;;;5.36;100.00;98294.41;7379672;19;20525;-50
2022/11/08 00:17:36;;;;;;;433.33;389.85;;;;;;;5.29;100.00;98300.75;7378273;19;20489;-59
2022/11/08 00:20:10;;;;;;;456.25;411.83;;;;;;;5.15;100.00;98299.59;7382356;19;20010;-53
2022/11/08 00:22:43;;;;;;;450.75;406.25;;;;;;;5.19;100.00;98288.16;7382567;19;20458;-48
2022/11/08 00:25:19;;;;;;;445.50;400.20;;;;;;;5.63;100.00;98301.16;7377235;19;20011;-52
2022/11/08 00:27:52;;;;;;;433.80;390.25;;;;;;;5.39;100.00;98304.72;7382832;19;20011;-51
2022/11/08 00:30:26;;;;;;;430.80;387.83;;;;;;;5.48;100.00;98304.38;7381384;19;20010;-59
2022/11/08 00:32:59;;;;;;;426.80;383.88;;;;;;;5.29;100.00;98295.56;7384922;19;20037;-52
2022/11/08 00:35:32;;;;;;;451.73;407.83;;;;;;;5.16;100.00;98294.31;7382567;19;20078;-48
2022/11/08 00:38:06;;;;;;;466.42;420.42;;;;;;;5.24;100.00;98297.50;7377066;19;20014;-52
2022/11/08 00:40:42;;;;;;;449.92;405.35;;;;;;;5.40;100.00;98293.38;7385699;19;20015;-53
2022/11/08 00:43:15;;;;;;;447.50;402.98;;;;;;;5.36;100.00;98293.56;7380177;19;20010;-56
2022/11/08 00:45:48;;;;;;;439.90;396.17;;;;;;;5.46;100.00;98294.91;7383494;19;20017;-50
2022/11/08 00:48:22;;;;;;;438.85;394.77;;;;;;;5.42;100.00;98295.94;7380140;19;20003;-49
2022/11/08 00:50:55;;;;;;;449.73;404.58;;;;;;;5.38;100.00;98295.22;7378386;19;20014;-51
2022/11/08 00:53:28;;;;;;;434.65;391.25;;;;;;;5.39;100.00;98304.72;7381241;19;20014;-49
2022/11/08 00:56:09;;;;;;;468.40;423.15;;;;;;;5.77;100.00;98285.81;7380859;19;20105;-50
2022/11/08 00:58:43;;;;;;;456.27;411.98;;;;;;;5.34;100.00;98295.38;7383873;19;20015;-49
2022/11/08 01:01:21;;;;;;;462.38;417.48;;;;;;;5.35;100.00;98294.47;7384887;19;20014;-52
2022/11/08 01:03:55;;;;;;;462.92;418.20;;;;;;;5.39;100.00;98290.84;7383723;19;20014;-48
2022/11/08 01:06:31;;;;;;;434.77;391.42;;;;;;;5.20;100.00;98280.28;7387780;19;19999;-53
2022/11/08 01:09:05;;;;;;;447.58;402.55;;;;;;;5.39;100.00;98291.69;7386667;19;20021;-48
2022/11/08 01:11:45;;;;;;;430.27;387.15;;;;;;;5.28;100.00;98282.56;7389334;19;20011;-48
2022/11/08 01:14:21;;;;;;;440.95;396.45;;;;;;;5.13;100.00;98294.44;7383854;19;20483;-51
2022/11/08 01:16:54;;;;;;;448.40;404.23;;;;;;;5.46;100.00;98293.16;7390970;19;20006;-51
2022/11/08 01:19:28;;;;;;;451.33;407.13;;;;;;;5.15;100.00;98291.78;7388567;19;20014;-50
2022/11/08 01:22:01;;;;;;;453.52;407.67;;;;;;;5.20;100.00;98290.69;7385679;19;20014;-51
2022/11/08 01:24:34;;;;;;;434.55;391.10;;;;;;;5.38;100.00;98292.63;7389424;19;20034;-52
2022/11/08 01:27:10;;;;;;;433.17;389.13;;;;;;;5.41;100.00;98279.44;7383768;19;20015;-58
2022/11/08 01:29:44;;;;;;;428.58;384.92;;;;;;;5.42;100.00;98264.66;7391459;19;20027;-53
2022/11/08 01:32:17;;;;;;;426.48;383.08;;;;;;;5.26;100.00;98277.41;7389408;19;20086;-51
2022/11/08 01:34:50;;;;;;;437.20;392.27;;;;;;;5.34;100.00;98279.75;7385295;19;20014;-52
2022/11/08 01:37:23;;;;;;;447.02;402.70;;;;;;;5.49;100.00;98280.00;7388349;19;20070;-52
2022/11/08 01:39:57;;;;;;;453.27;408.23;;;;;;;5.33;100.00;98273.66;7386588;19;20022;-55
2022/11/08 01:42:36;;;;;;;450.08;405.13;;;;;;;5.33;100.00;98278.06;7387751;19;20343;-48
2022/11/08 01:45:13;;;;;;;437.67;393.35;;;;;;;5.22;100.00;98273.22;7388003;19;20033;-50
2022/11/08 01:47:46;;;;;;;436.55;392.23;;;;;;;5.24;100.00;98276.63;7386996;19;20010;-52
2022/11/08 01:50:24;;;;;;;437.52;393.25;;;;;;;5.36;100.00;98276.16;7387447;19;20367;-53
2022/11/08 01:53:01;;;;;;;452.63;406.60;;;;;;;5.30;100.00;98280.78;7384156;19;20022;-52
2022/11/08 01:55:39;;;;;;;439.52;394.92;;;;;;;5.37;100.00;98274.41;7387691;19;20251;-51
2022/11/08 01:58:19;;;;;;;459.63;413.35;;;;;;;5.30;100.00;98276.38;7383808;19;20041;-48
2022/11/08 02:00:52;;;;;;;451.83;407.58;;;;;;;5.31;100.00;98278.09;7386755;19;20419;-53
2022/11/08 02:03:26;;;;;;;439.17;394.77;;;;;;;5.32;100.00;98279.78;7387433;19;20355;-60
2022/11/08 02:06:02;;;;;;;469.90;424.45;;;;;;;5.26;100.00;98273.97;7389196;19;20010;-50
2022/11/08 02:08:40;;;;;;;471.40;426.13;;;;;;;5.34;100.00;98272.75;7387705;19;20049;-50
2022/11/08 02:11:15;;;;;;;467.27;421.17;;;;;;;5.23;100.00;98264.53;7383392;19;20014;-56
2022/11/08 02:13:51;;;;;;;470.08;424.15;;;;;;;5.44;100.00;98275.88;7388107;19;20038;-48
2022/11/08 02:16:27;;;;;;;466.95;420.65;;;;;;;5.38;100.00;98271.75;7382886;19;20010;-50
2022/11/08 02:19:00;;;;;;;471.15;425.38;;;;;;;5.21;100.00;98274.13;7388329;19;20074;-50
2022/11/08 02:21:40;;;;;;;464.83;419.77;;;;;;;5.43;100.00;98274.16;7388778;19;20015;-50
2022/11/08 02:24:18;;;;;;;473.58;427.63;;;;;;;5.35;100.00;98271.00;7389368;19;20021;-53
2022/11/08 02:26:52;;;;;;;463.58;417.60;;;;;;;5.59;100.00;98268.28;7386614;19;20027;-52
2022/11/08 02:29:32;;;;;;;469.80;423.65;;;;;;;5.53;100.00;98273.75;7385491;19;20375;-50
2022/11/08 02:32:07;;;;;;;452.05;407.38;;;;;;;5.23;100.00;98269.72;7386863;19;20469;-53
2022/11/08 02:34:46;;;;;;;464.05;417.90;;;;;;;5.54;100.00;98271.97;7382653;19;20047;-54
2022/11/08 02:37:22;;;;;;;431.25;388.17;;;;;;;5.45;100.00;98267.13;7388231;19;20010;-54
2022/11/08 02:39:58;;;;;;;453.27;407.98;;;;;;;5.23;100.00;98269.72;7380494;19;20015;-50
2022/11/08 02:42:31;;;;;;;427.35;383.75;;;;;;;5.63;100.00;98266.41;7384206;19;20660;-54
2022/11/08 02:45:05;;;;;;;437.25;393.50;;;;;;;5.44;100.00;98263.66;7387795;19;20363;-52
2022/11/08 02:47:38;;;;;;;447.60;402.77;;;;;;;5.12;100.00;98261.47;7385353;19;20319;-52
2022/11/08 02:50:12;;;;;;;448.95;404.33;;;;;;;5.37;100.00;98262.22;7387984;19;20021;-50
2022/11/08 02:52:45;;;;;;;476.83;430.20;;;;;;;5.34;100.00;98264.94;7379491;19;20462;-51
2022/11/08 02:55:21;;;;;;;449.00;404.23;;;;;;;5.34;100.00;98267.53;7386224;19;20343;-50
2022/11/08 02:57:55;;;;;;;443.17;398.73;;;;;;;5.32;100.00;98266.75;7387751;19;20465;-54
2022/11/08 03:00:28;;;;;;;444.25;399.27;;;;;;;5.19;100.00;98259.47;7385254;19;20042;-51
2022/11/08 03:03:03;;;;;;;439.52;395.40;;;;;;;5.50;100.00;98262.59;7386676;19;20027;-51
2022/11/08 03:05:36;;;;;;;449.35;404.13;;;;;;;5.36;100.00;98260.50;7382714;19;20018;-53
2022/11/08 03:08:10;;;;;;;465.45;420.63;;;;;;;5.38;100.00;98266.53;7385616;19;20060;-55
2022/11/08 03:10:46;;;;;;;480.67;434.73;;;;;;;5.14;100.00;98264.84;7388160;19;20115;-53
2022/11/08 03:13:19;;;;;;;484.15;438.10;;;;;;;5.16;100.00;98270.88;7384775;19;20010;-52
2022/11/08 03:15:53;;;;;;;452.52;407.92;;;;;;;5.16;100.00;98267.41;7387547;19;20010;-53
2022/11/08 03:18:26;;;;;;;453.23;407.70;;;;;;;5.08;100.00;98262.47;7379667;19;20414;-51
2022/11/08 03:20:59;;;;;;;435.02;391.75;;;;;;;5.53;100.00;98265.94;7385318;19;20018;-52
2022/11/08 03:23:33;;;;;;;442.00;397.98;;;;;;;5.28;100.00;98257.34;7387148;19;20010;-51
2022/11/08 03:26:10;;;;;;;446.35;401.27;;;;;;;5.13;100.00;98263.16;7385595;19;20555;-51
2022/11/08 03:28:44;;;;;;;431.90;387.88;;;;;;;5.15;100.00;98266.53;7382179;19;20476;-54
2022/11/08 03:31:17;;;;;;;479.08;432.33;;;;;;;5.16;100.00;98263.03;7379942;19;20471;-52
2022/11/08 03:33:50;;;;;;;463.02;417.83;;;;;;;5.25;100.00;98270.50;7385219;19;20047;-52
2022/11/08 03:36:24;;;;;;;462.63;416.80;;;;;;;5.09;100.00;98266.78;7386451;19;20066;-53
2022/11/08 03:38:57;;;;;;;458.17;412.25;;;;;;;5.35;100.00;98277.06;7386369;19;20023;-54
2022/11/08 03:41:33;;;;;;;446.73;402.33;;;;;;;5.42;100.00;98272.47;7385555;19;20030;-58
2022/11/08 03:44:06;;;;;;;457.88;411.42;;;;;;;5.19;100.00;98270.72;7380967;19;20350;-54
2022/11/08 03:46:39;;;;;;;434.55;390.10;;;;;;;5.29;100.00;98271.25;7382373;19;20093;-53
2022/11/08 03:49:13;;;;;;;441.65;397.63;;;;;;;5.13;100.00;98267.50;7384552;19;20027;-52
2022/11/08 03:51:46;;;;;;;466.42;421.15;;;;;;;5.09;100.00;98282.44;7382436;19;20026;-52
2022/11/08 03:54:19;;;;;;;461.17;416.20;;;;;;;5.24;100.00;98273.16;7382344;19;20078;-54
2022/11/08 03:56:56;;;;;;;473.52;426.88;;;;;;;5.13;100.00;98272.72;7379379;19;20013;-55
2022/11/08 03:59:29;;;;;;;455.63;410.55;;;;;;;5.15;100.00;98281.34;7385609;19;20010;-54
2022/11/08 04:02:03;;;;;;;441.48;397.33;;;;;;;5.26;100.00;98284.41;7382280;19;20003;-53
2022/11/08 04:04:36;;;;;;;447.15;401.60;;;;;;;5.35;100.00;98273.59;7383548;19;20035;-56
2022/11/08 04:07:09;;;;;;;440.40;396.40;;;;;;;5.27;100.00;98276.53;7382531;19;20011;-52
2022/11/08 04:09:42;;;;;;;466.08;419.83;;;;;;;5.38;100.00;98271.75;7379824;19;20534;-53
2022/11/08 04:15:17;;;;;;;483.38;436.42;;;;;;;5.19;100.00;98272.50;7378724;19;20010;-51
2022/11/08 04:23:24;;;;;;;461.92;415.85;;;;;;;5.35;100.00;98266.66;7384662;19;20011;-52
2022/11/08 04:26:02;;;;;;;468.30;421.98;;;;;;;5.31;100.00;98265.06;7381919;19;20019;-54
2022/11/08 04:28:41;;;;;;;460.85;416.02;;;;;;;5.63;100.00;98263.81;7384177;19;20011;-53
2022/11/08 04:31:16;;;;;;;479.40;431.85;;;;;;;5.52;100.00;98259.00;7381138;19;20007;-54
2022/11/08 04:33:50;;;;;;;473.15;427.45;;;;;;;5.33;100.00;98255.41;7384009;19;20014;-54
2022/11/08 04:36:23;;;;;;;480.88;433.83;;;;;;;5.34;100.00;98262.31;7379706;19;20014;-55
2022/11/08 04:38:57;;;;;;;463.58;418.20;;;;;;;5.44;100.00;98255.84;7384472;19;20038;-51
2022/11/08 04:41:32;;;;;;;463.80;418.70;;;;;;;5.32;100.00;98255.47;7381467;19;20018;-56
2022/11/08 04:44:08;;;;;;;474.25;426.73;;;;;;;5.26;100.00;98238.31;7380686;19;20027;-52
2022/11/08 04:46:42;;;;;;;457.83;412.58;;;;;;;5.33;100.00;98251.97;7379700;19;20033;-54
2022/11/08 04:49:15;;;;;;;454.63;409.67;;;;;;;5.16;100.00;98251.75;7378877;19;20023;-54
2022/11/08 04:51:48;;;;;;;445.13;401.00;;;;;;;5.38;100.00;98245.69;7384375;19;20040;-53
2022/11/08 04:54:21;;;;;;;452.55;407.63;;;;;;;5.29;100.00;98248.63;7382870;19;20042;-52
2022/11/08 04:56:55;;;;;;;459.17;412.83;;;;;;;5.26;100.00;98247.91;7381558;19;20010;-55
2022/11/08 04:59:30;;;;;;;453.60;408.63;;;;;;;5.34;100.00;98246.66;7384965;19;20030;-52
2022/11/08 05:02:04;;;;;;;499.10;452.40;;;;;;;5.27;100.00;98250.44;7377009;19;20018;-59
2022/11/08 05:04:37;;;;;;;458.13;413.17;;;;;;;5.29;100.00;98246.00;7383654;19;20069;-52
2022/11/08 05:07:10;;;;;;;448.60;403.92;;;;;;;5.31;100.00;98239.00;7382504;19;20050;-55
2022/11/08 05:09:43;;;;;;;471.55;424.88;;;;;;;5.22;100.00;98236.72;7378540;19;20025;-52
2022/11/08 05:12:17;;;;;;;447.30;402.65;;;;;;;5.37;100.00;98241.34;7382505;19;20098;-52
2022/11/08 05:14:53;;;;;;;448.48;403.67;;;;;;;5.39;100.00;98244.75;7382570;19;20016;-58
2022/11/08 05:17:26;;;;;;;452.52;408.02;;;;;;;5.35;100.00;98237.97;7385141;19;20010;-53
2022/11/08 05:25:32;;;;;;;455.63;408.08;;;;;;;5.65;100.00;98241.09;7380555;19;20799;-58
2022/11/08 05:28:06;;;;;;;465.88;418.90;;;;;;;5.60;100.00;98240.44;7382596;19;20014;-48
2022/11/08 05:30:42;;;;;;;470.58;423.73;;;;;;;5.57;100.00;98249.25;7384996;19;20006;-48
2022/11/08 05:33:16;;;;;;;465.50;418.25;;;;;;;5.64;100.00;98250.72;7380468;19;20428;-51
2022/11/08 05:35:49;;;;;;;466.63;421.08;;;;;;;5.56;100.00;98251.91;7379832;19;20038;-49
2022/11/08 05:38:22;;;;;;;476.30;429.48;;;;;;;5.60;100.00;98258.72;7380174;19;20047;-57
2022/11/08 05:40:56;;;;;;;462.42;415.30;;;;;;;5.74;100.00;98261.63;7383018;19;20044;-48
2022/11/08 05:43:31;;;;;;;478.45;430.67;;;;;;;5.64;100.00;98266.38;7380619;19;20551;-50
2022/11/08 05:46:07;;;;;;;500.45;451.40;;;;;;;5.80;100.00;98261.34;7380562;19;20078;-50
2022/11/08 05:48:41;;;;;;;506.55;457.80;;;;;;;5.78;100.00;98268.41;7381451;19;20014;-53
2022/11/08 05:51:22;;;;;;;516.17;465.52;;;;;;;5.49;100.00;98277.41;7378304;19;20032;-59
2022/11/08 05:53:56;;;;;;;486.67;438.00;;;;;;;5.63;100.00;98272.47;7385670;19;20031;-49
2022/11/08 05:56:30;;;;;;;488.45;442.20;;;;;;;5.68;100.00;98273.16;7388931;19;20155;-58
2022/11/08 05:59:03;;;;;;;483.98;438.25;;;;;;;5.48;100.00;98280.91;7390500;19;20855;-49
2022/11/08 06:01:39;;;;;;;465.30;420.60;;;;;;;5.36;100.00;98276.16;7386243;19;20014;-50
2022/11/08 06:04:12;;;;;;;478.95;432.60;;;;;;;5.66;100.00;98277.56;7385126;19;20418;-50
2022/11/08 06:06:47;;;;;;;476.42;430.23;;;;;;;5.70;100.00;98279.16;7384932;19;20014;-50
2022/11/08 06:09:20;;;;;;;481.63;435.70;;;;;;;5.96;100.00;98276.34;7383199;19;20010;-59
2022/11/08 06:11:54;;;;;;;491.80;444.95;;;;;;;5.88;100.00;98281.03;7384613;19;20141;-48
2022/11/08 06:14:28;;;;;;;495.80;448.20;;;;;;;5.86;100.00;98282.88;7387816;19;20534;-55
2022/11/08 06:17:04;;;;;;;490.50;441.83;;;;;;;5.81;100.00;98290.00;7383142;19;20034;-47
2022/11/08 06:19:37;;;;;;;473.30;426.10;;;;;;;6.15;100.00;98284.28;7390945;19;20014;-50
2022/11/08 06:22:10;;;;;;;488.48;441.48;;;;;;;5.99;100.00;98289.28;7385585;19;20041;-59
2022/11/08 06:24:44;;;;;;;477.45;430.45;;;;;;;6.24;100.00;98287.38;7389368;19;19998;-48
2022/11/08 06:27:20;;;;;;;471.15;424.77;;;;;;;6.10;100.00;98292.28;7388986;19;20461;-49
2022/11/08 06:29:54;;;;;;;527.22;477.05;;;;;;;6.07;100.00;98300.25;7380301;19;20483;-52
2022/11/08 06:32:29;;;;;;;484.48;437.80;;;;;;;6.19;100.00;98291.94;7386300;19;20014;-51
2022/11/08 06:35:03;;;;;;;482.70;435.02;;;;;;;6.06;100.00;98303.78;7385739;19;20017;-57
2022/11/08 06:37:36;;;;;;;505.67;457.33;;;;;;;6.43;100.00;98309.22;7389598;19;20021;-48
2022/11/08 06:40:10;;;;;;;484.00;437.20;;;;;;;6.30;100.00;98299.34;7389461;19;20022;-49
2022/11/08 06:42:43;;;;;;;511.17;463.45;;;;;;;6.37;100.00;98304.22;7381535;19;20035;-52
2022/11/08 06:45:17;;;;;;;471.85;427.60;;;;;;;6.57;100.00;98301.63;7387968;19;20011;-48
2022/11/08 06:47:53;;;;;;;483.33;438.25;;;;;;;6.41;100.00;98290.16;7383739;19;20006;-58
2022/11/08 06:50:27;;;;;;;495.10;448.98;;;;;;;6.32;100.00;98285.28;7387653;19;20010;-49
2022/11/08 06:53:03;;;;;;;515.75;467.35;;;;;;;6.44;100.00;98302.22;7384681;19;20011;-48
2022/11/08 06:55:37;;;;;;;504.58;455.33;;;;;;;6.83;100.00;98296.13;7383900;19;20021;-52
2022/11/08 06:58:10;;;;;;;483.08;436.45;;;;;;;6.65;100.00;98299.53;7385479;19;20489;-52
2022/11/08 07:00:44;;;;;;;487.08;440.75;;;;;;;6.51;100.00;98294.06;7380691;19;20010;-59
2022/11/08 07:03:22;;;;;;;489.45;443.13;;;;;;;6.77;100.00;98291.16;7387961;19;20489;-51
2022/11/08 07:05:55;;;;;;;485.63;439.55;;;;;;;6.67;100.00;98295.13;7387226;19;20355;-50
2022/11/08 07:08:29;;;;;;;501.30;453.98;;;;;;;7.03;100.00;98293.47;7382075;19;21012;-54
2022/11/08 07:11:02;;;;;;;475.48;429.85;;;;;;;6.89;100.00;98300.25;7384937;19;20066;-50
2022/11/08 07:13:38;;;;;;;516.28;467.17;;;;;;;6.99;100.00;98297.13;7380364;19;20037;-49
2022/11/08 07:16:12;;;;;;;508.58;461.35;;;;;;;7.33;100.00;98296.47;7386254;19;20477;-51
2022/11/08 07:18:49;;;;;;;509.00;460.88;;;;;;;7.06;100.00;98293.34;7388966;19;20389;-50
2022/11/08 07:21:22;;;;;;;510.58;462.02;;;;;;;7.06;100.00;98303.81;7388536;19;20514;-48
2022/11/08 07:23:56;;;;;;;484.33;437.88;;;;;;;7.17;100.00;98304.16;7387376;19;20013;-50
2022/11/08 07:26:29;;;;;;;511.88;463.17;;;;;;;7.29;100.00;98298.38;7382060;19;20093;-49
2022/11/08 07:29:02;;;;;;;486.80;439.58;;;;;;;7.41;100.00;98305.69;7387569;19;20466;-49
2022/11/08 07:31:35;;;;;;;480.25;433.73;;;;;;;7.50;100.00;98300.00;7387584;19;20465;-52
2022/11/08 07:34:11;;;;;;;503.20;454.98;;;;;;;7.51;100.00;98293.03;7383552;19;20037;-52
2022/11/08 07:36:44;;;;;;;479.95;433.17;;;;;;;7.66;100.00;98300.97;7387475;19;20006;-49
2022/11/08 07:39:17;;;;;;;501.38;452.60;;;;;;;7.62;100.00;98298.59;7382629;19;20037;-50
2022/11/08 07:41:51;;;;;;;469.10;422.90;;;;;;;7.66;100.00;98300.97;7387992;19;20018;-53
2022/11/08 07:44:24;;;;;;;470.80;424.75;;;;;;;7.79;100.00;98294.25;7388753;19;20019;-49
2022/11/08 07:46:57;;;;;;;478.25;431.25;;;;;;;8.02;100.00;98307.09;7384936;19;20018;-53
2022/11/08 07:49:33;;;;;;;465.05;419.27;;;;;;;7.91;100.00;98291.03;7384135;19;20010;-52
2022/11/08 07:52:06;;;;;;;503.27;454.20;;;;;;;7.91;100.00;98295.44;7382938;19;20010;-49
2022/11/08 07:54:39;;;;;;;476.80;430.10;;;;;;;8.00;100.00;98292.38;7385857;19;20070;-51
2022/11/08 07:57:12;;;;;;;479.17;432.55;;;;;;;8.12;100.00;98295.28;7384193;19;20042;-52
2022/11/08 07:59:46;;;;;;;482.90;434.92;;;;;;;8.51;100.00;98296.84;7380335;19;20021;-48
2022/11/08 08:02:20;;;;;;;467.33;421.40;;;;;;;8.41;100.00;98288.59;7386563;19;20027;-49
2022/11/08 08:04:57;;;;;;;471.23;424.92;;;;;;;8.06;100.00;98289.50;7381118;19;20035;-50
2022/11/08 08:07:31;;;;;;;479.35;433.42;;;;;;;8.33;100.00;98302.09;7389165;19;20010;-52
2022/11/08 08:10:05;;;;;;;472.75;425.75;;;;;;;8.15;100.00;98299.50;7389102;19;20019;-49
2022/11/08 08:12:38;;;;;;;480.45;432.92;;;;;;;8.18;100.00;98299.38;7385875;19;20028;-52
2022/11/08 08:15:13;;;;;;;486.08;438.65;;;;;;;8.43;100.00;98288.50;7388156;19;20659;-48
2022/11/08 08:17:46;;;;;;;497.27;448.50;;;;;;;8.23;100.00;98294.75;7381124;19;20017;-48
2022/11/08 08:20:22;;;;;;;486.63;439.13;;;;;;;8.40;100.00;98289.53;7387258;19;20010;-49
2022/11/08 08:22:56;;;;;;;462.63;416.52;;;;;;;8.34;100.00;98293.28;7387105;19;20025;-49
2022/11/08 08:25:30;;;;;;;471.10;424.13;;;;;;;8.53;100.00;98285.34;7387048;19;20103;-50
2022/11/08 08:28:05;;;;;;;488.33;440.33;;;;;;;8.52;100.00;98285.44;7383295;19;20019;-48
2022/11/08 08:30:39;;;;;;;499.92;450.42;;;;;;;8.61;100.00;98290.19;7378496;19;20395;-48
2022/11/08 08:33:15;;;;;;;492.90;444.60;;;;;;;8.34;100.00;98292.44;7382410;19;20374;-49
2022/11/08 08:35:51;;;;;;;489.90;442.10;;;;;;;8.76;100.00;98286.78;7381039;19;20019;-58
2022/11/08 08:38:24;;;;;;;494.20;445.05;;;;;;;8.79;100.00;98294.50;7381320;19;20465;-48
2022/11/08 08:40:57;;;;;;;505.73;454.98;;;;;;;8.72;100.00;98282.63;7382528;19;20011;-48
2022/11/08 08:43:31;;;;;;;494.95;444.85;;;;;;;8.66;100.00;98278.56;7376394;19;20086;-49
2022/11/08 08:46:05;;;;;;;483.92;436.08;;;;;;;8.73;100.00;98279.09;7384138;19;20462;-48
2022/11/08 08:48:39;;;;;;;477.65;430.02;;;;;;;8.78;100.00;98271.84;7382633;19;20078;-57
2022/11/08 08:51:15;;;;;;;469.20;421.80;;;;;;;8.88;100.00;98275.66;7385330;19;20908;-49
2022/11/08 08:53:48;;;;;;;468.08;420.67;;;;;;;8.93;100.00;98284.16;7384931;19;20046;-48
2022/11/08 08:56:21;;;;;;;482.35;433.10;;;;;;;8.90;100.00;98279.06;7379570;19;20010;-47
2022/11/08 08:58:54;;;;;;;479.65;431.00;;;;;;;9.12;100.00;98280.47;7382824;19;20011;-48
2022/11/08 09:01:28;;;;;;;659.95;592.15;;;;;;;8.93;100.00;98274.50;7383370;19;20014;-54
2022/11/08 09:04:01;;;;;;;682.78;599.08;;;;;;;9.14;100.00;98281.25;7385418;19;20938;-53
2022/11/08 09:06:37;;;;;;;734.25;630.67;;;;;;;9.24;100.00;98278.97;7385470;19;20015;-49
2022/11/08 09:09:10;;;;;;;736.28;628.45;;;;;;;9.15;100.00;98277.69;7379518;19;20006;-49
2022/11/08 09:11:44;;;;;;;685.67;606.15;;;;;;;9.33;100.00;98279.31;7383011;19;20354;-48
2022/11/08 09:14:17;;;;;;;685.92;611.28;;;;;;;9.29;100.00;98282.19;7383193;19;20022;-59
2022/11/08 09:16:50;;;;;;;663.58;595.65;;;;;;;9.14;100.00;98283.00;7378201;19;20011;-51
2022/11/08 09:19:26;;;;;;;615.72;555.63;;;;;;;9.20;100.00;98288.78;7384392;19;20506;-50
2022/11/08 09:22:02;;;;;;;506.15;454.92;;;;;;;9.26;100.00;98285.81;7380243;19;20066;-50
2022/11/08 09:24:35;;;;;;;611.58;549.08;;;;;;;9.29;100.00;98290.06;7383975;19;20010;-50
2022/11/08 09:27:10;;;;;;;495.42;445.95;;;;;;;9.23;100.00;98287.78;7389003;19;20478;-59
2022/11/08 09:29:43;;;;;;;611.83;551.20;;;;;;;9.62;100.00;98285.63;7389111;19;20349;-55
2022/11/08 09:32:16;;;;;;;639.33;575.20;;;;;;;9.48;100.00;98286.34;7391276;19;20111;-51
2022/11/08 09:34:50;;;;;;;586.22;528.97;;;;;;;9.33;100.00;98284.56;7386817;19;20030;-50
2022/11/08 09:37:26;;;;;;;488.17;438.60;;;;;;;9.56;100.00;98285.94;7391184;19;20010;-48
2022/11/08 09:40:00;;;;;;;480.48;431.23;;;;;;;9.94;100.00;98287.31;7385119;19;20015;-58
2022/11/08 09:42:55;;;;;;;477.00;428.25;;;;;;;9.69;100.00;98287.00;7389533;19;20021;-49
2022/11/08 09:45:32;;;;;;;498.48;447.83;;;;;;;9.81;100.00;98273.19;7385282;19;20019;-54
2022/11/08 09:48:09;;;;;;;487.73;438.63;;;;;;;9.63;100.00;98279.47;7387994;19;20022;-48
2022/11/08 09:50:44;;;;;;;;;;;;;;;9.93;100.00;98275.94;7386846;19;20018;-59
2022/11/08 09:53:24;;;;;;;535.63;483.35;;;;;;;9.78;100.00;98266.31;7389055;19;19929;-49
2022/11/08 09:56:02;;;;;;;507.40;457.38;;;;;;;9.77;100.00;98269.88;7390201;19;20031;-50
2022/11/08 09:58:40;;;;;;;614.58;554.88;;;;;;;9.83;100.00;98268.69;7391503;19;20014;-55
2022/11/08 10:01:16;;;;;;;599.33;539.60;;;;;;;10.13;100.00;98269.56;7391659;19;20029;-50
2022/11/08 10:03:53;;;;;;;498.00;447.77;;;;;;;9.92;100.00;98269.00;7390371;19;20022;-52
2022/11/08 10:06:42;;;;;;;477.88;429.40;;;;;;;9.71;100.00;98272.00;7392132;19;20411;-49
2022/11/08 10:09:37;;;;;;;477.65;428.85;;;;;;;10.06;100.00;98273.47;7390366;19;20477;-49
2022/11/08 10:12:24;;;;;;;516.35;464.92;;;;;;;10.06;100.00;98265.59;7387142;19;20026;-49
2022/11/08 10:15:18;;;;;;;496.80;447.58;;;;;;;10.38;100.00;98262.81;7389721;19;20020;-50
2022/11/08 10:18:07;;;;;;;491.33;441.95;;;;;;;10.46;100.00;98259.72;7389976;19;20085;-50
2022/11/08 10:20:54;;;;;;;503.75;453.63;;;;;;;10.38;100.00;98256.72;7385854;19;20007;-56
2022/11/08 10:23:35;;;;;;;500.48;450.77;;;;;;;10.28;100.00;98253.78;7389729;19;20018;-51
2022/11/08 10:26:17;;;;;;;497.80;447.48;;;;;;;10.57;100.00;98246.78;7382173;19;20013;-50
2022/11/08 10:28:57;;;;;;;482.65;434.23;;;;;;;10.64;100.00;98251.59;7388364;19;20011;-50
2022/11/08 10:31:33;;;;;;;499.85;449.80;;;;;;;10.60;100.00;98252.72;7383669;19;20007;-49
2022/11/08 10:34:08;;;;;;;491.13;441.92;;;;;;;10.62;100.00;98244.75;7390133;19;20010;-48
2022/11/08 10:36:46;;;;;;;504.02;453.50;;;;;;;10.60;100.00;98241.34;7386739;19;20010;-50
2022/11/08 10:39:25;;;;;;;486.80;437.88;;;;;;;10.61;100.00;98241.25;7389035;19;20041;-49
2022/11/08 10:42:07;;;;;;;504.17;454.00;;;;;;;10.59;100.00;98244.94;7382876;19;20039;-52
2022/11/08 10:44:42;;;;;;;507.20;456.88;;;;;;;10.37;100.00;98237.44;7387432;19;20354;-53
2022/11/08 10:47:22;;;;;;;515.92;465.17;;;;;;;10.35;100.00;98241.09;7389328;19;20010;-50
2022/11/08 10:49:55;;;;;;;591.72;532.65;;;;;;;10.34;100.00;98236.78;7388155;19;20074;-50
2022/11/08 10:52:43;;;;;;;494.42;444.80;;;;;;;10.70;100.00;98250.41;7386266;19;20085;-54
2022/11/08 10:55:29;;;;;;;491.25;441.20;;;;;;;10.64;100.00;98230.56;7385827;19;20465;-49
2022/11/08 10:58:06;;;;;;;499.15;448.50;;;;;;;10.55;100.00;98240.78;7385281;19;20011;-58
2022/11/08 11:00:39;;;;;;;490.15;440.33;;;;;;;10.51;100.00;98237.47;7388583;19;20488;-52
2022/11/08 11:03:30;;;;;;;493.00;442.85;;;;;;;10.39;100.00;98232.97;7385723;19;20356;-52
2022/11/08 11:06:08;;;;;;;506.67;456.75;;;;;;;10.41;100.00;98231.09;7387880;19;20014;-49
2022/11/08 11:08:54;;;;;;;496.88;446.58;;;;;;;10.28;100.00;98230.13;7389253;19;20015;-58
2022/11/08 11:11:31;;;;;;;489.30;440.40;;;;;;;10.54;100.00;98236.44;7387869;19;20362;-49
2022/11/08 11:14:20;;;;;;;513.90;462.75;;;;;;;10.55;100.00;98227.66;7385812;19;20010;-53
2022/11/08 11:17:00;;;;;;;488.80;439.13;;;;;;;10.19;100.00;98230.66;7387644;19;20476;-48
2022/11/08 11:19:34;;;;;;;518.22;466.17;;;;;;;10.45;100.00;98222.09;7383743;19;20092;-49
2022/11/08 11:22:11;;;;;;;582.40;524.17;;;;;;;10.72;100.00;98220.44;7387847;19;20022;-51
2022/11/08 11:24:51;;;;;;;;;;;;;;;10.58;100.00;98233.56;7388833;19;20022;-49
2022/11/08 11:27:29;;;;;;;609.17;548.47;;;;;;;10.44;100.00;98225.63;7388109;19;19988;-49
2022/11/08 11:30:33;;;;;;;657.75;587.80;;;;;;;10.68;100.00;98220.69;7388558;19;20034;-48
2022/11/08 11:33:10;;;;;;;527.30;474.35;;;;;;;10.67;100.00;98224.28;7389079;19;20019;-50
2022/11/08 11:35:50;;;;;;;509.20;456.20;;;;;;;10.67;100.00;98224.28;7387799;19;20010;-49
2022/11/08 11:38:34;;;;;;;514.25;462.52;;;;;;;10.66;100.00;98212.06;7389716;19;20488;-50
2022/11/08 11:41:14;;;;;;;509.92;458.25;;;;;;;10.74;100.00;98213.28;7383063;19;20018;-52
2022/11/08 11:43:53;;;;;;;475.15;425.95;;;;;;;10.75;100.00;98208.88;7384731;19;20484;-49
2022/11/08 11:46:35;;;;;;;515.95;463.42;;;;;;;11.03;100.00;98214.19;7383718;19;20022;-49
2022/11/08 11:49:18;;;;;;;509.52;458.50;;;;;;;10.77;100.00;98202.56;7384137;19;20016;-49
2022/11/08 11:51:51;;;;;;;503.55;452.75;;;;;;;10.87;100.00;98202.84;7384281;19;20059;-52
2022/11/08 11:54:24;;;;;;;502.27;451.42;;;;;;;10.88;100.00;98199.31;7384563;19;20029;-50
2022/11/08 11:57:03;;;;;;;509.33;457.75;;;;;;;10.75;100.00;98215.00;7380243;19;20007;-54
2022/11/08 11:59:59;;;;;;;494.13;444.48;;;;;;;10.68;100.00;98197.88;7383531;19;20587;-48
2022/11/08 12:03:02;;;;;;;500.88;451.00;;;;;;;10.74;100.00;98209.81;7383453;19;20015;-52